Kinross Charter Township, MI

4:23 AM EDT on August 31, 2015 (GMT -0400)
Chippewa County International | | Change Station
CLOSE
Current Station
Airport
Location: Chippewa,
Elevation: 801 ft
Nearby Weather Stations

Elev 801 ft 46.25 °N, 84.48 °W | Updated 28 minutes ago

Overcast
Overcast
64 °F
Feels Like 64 °F
N
7
Wind Variable Wind from WSW

Today
High -- | Low -- °F
--% Chance of Precip.
Yesterday
High -- | Low -- °F
Precip. -- in
6:56 AM 8:18 PM
Waning Gibbous, 96% visible
Pressure 29.95 in
Visibility 7.0 miles
Clouds Overcast 600 ft
Dew Point 63 °F
Humidity 94%
Rainfall 0.00 in
Snow Depth Not available.
UV 0 out of 12
Pollen 10.10 out of 12
Air Quality Not available.
Flu Activity Not available.
METAR KCIU 310755Z AUTO 24006KT 7SM OVC006 18/17 A2995 RMK AO1
Pressure 29.95 in
Visibility 7.0 miles
Clouds Overcast 600 ft
Dew Point 63 °F
Humidity 94%
Rainfall 0.00 in
Snow Depth Not available.
UV 0 out of 12
Pollen 10.10 out of 12
Air Quality Not available.
Flu Activity Not available.
METAR KCIU 310755Z AUTO 24006KT 7SM OVC006 18/17 A2995 RMK AO1
Nowcast | as of 4:00 am EDT on August 31, 2015

At 5 am...mostly clear. Patchy fog. Temperature 62. Light winds. At 7 am...partly cloudy. Patchy fog. Temperature 61. Light winds. At 9 am...partly cloudy. Patchy fog. Temperature 64. Light winds. At 11 am...partly cloudy. Temperature 69. Light winds.

×

10-Day Weather Forecast

×

Almanac

Astronomy

Aug. 31, 2015 Rise Set
Actual Time
Civil Twilight
Nautical Twilight
Astronomical Twilight
Moon
Length of Visible Light
Length of Day
Tomorrow will be .
, % of the Moon is Illuminated

Today's Extremes

State Highs State Lows

Community

WunderPhotos

Upload Photos

1,851,220 photos uploaded!

WunderBlogs® & News

Nearby

Air Quality

  Air Quality AQ Index Pollutant
Not available.

Snow Depth

Station Depth Elevation

Earthquake Activity

City Distance Mag. Time & Date
Minimum magnitude displayed is 2.5.

Coastal Water Temperatures

Place Temperature

Stations

Nearby Weather Stations

Station Location Temp. Windchill Dew Point Humidity Wind Precip. Elev Updated Type